Terminal Aerodrome Forecast
Issued by NWS Jackson, KY

Home | Current Version | Previous Version | Text Only | Print | Product List | Glossary On
Versions: 1 2 3 4 5 6 7 8 9 10 11 12 13
000
FTUS43 KJKL 040520
TAFLOZ
TAF
KLOZ 040520Z 0406/0506 00000KT P6SM VCTS SCT050CB BKN100
     FM040900 VRB02KT 5SM BR SCT050
      TEMPO 0410/0412 1/2SM FG SCT002
     FM041300 VRB05KT P6SM SCT020
     FM041500 29007KT P6SM BKN040=

USA.gov is the U.S. government's official web portal to all federal, state and local government web resources and services.